createdAt,value
2024-03-02T00:00:42.663Z,84.07
2024-03-02T00:02:45.688Z,85.53
2024-03-02T00:04:47.254Z,154.68
2024-03-02T00:06:48.845Z,113.97
2024-03-02T00:08:51.491Z,137.55
2024-03-02T00:10:57.407Z,131.07
2024-03-02T00:12:59.442Z,102.18
2024-03-02T00:15:03.828Z,109.50
2024-03-02T00:17:05.438Z,73.63
2024-03-02T00:19:08.164Z,77.45
2024-03-02T00:21:14.446Z,72.65
2024-03-02T00:23:18.441Z,71.18
2024-03-02T00:25:19.951Z,76.45
2024-03-02T00:27:22.154Z,72.47
2024-03-02T00:29:23.734Z,63.65
2024-03-02T00:31:26.431Z,74.65
2024-03-02T00:33:32.841Z,89.57
2024-03-02T00:35:34.452Z,81.28
2024-03-02T00:37:36.112Z,77.75
2024-03-02T00:39:37.710Z,71.57
2024-03-02T00:41:43.508Z,57.33
2024-03-02T00:43:49.196Z,70.63
2024-03-02T00:45:51.091Z,69.93
2024-03-02T00:47:53.767Z,72.25
2024-03-02T00:49:55.366Z,72.18
2024-03-02T00:51:57.423Z,78.18
2024-03-02T00:54:02.058Z,73.43
2024-03-02T00:56:04.042Z,71.13
2024-03-02T00:58:05.567Z,68.80
2024-03-02T01:00:10.910Z,104.25
2024-03-02T01:02:12.432Z,111.13
2024-03-02T01:04:15.262Z,79.35
2024-03-02T01:06:17.606Z,77.65
2024-03-02T01:08:19.228Z,126.28
2024-03-02T01:10:21.526Z,80.35
2024-03-02T01:12:23.127Z,99.28
2024-03-02T01:14:24.733Z,100.38
2024-03-02T01:16:26.286Z,93.50
2024-03-02T01:18:28.368Z,75.88
2024-03-02T01:20:29.943Z,75.45
2024-03-02T01:22:31.501Z,66.45
2024-03-02T01:24:33.056Z,78.70
2024-03-02T01:26:34.594Z,78.50
2024-03-02T01:28:36.167Z,71.30
2024-03-02T01:30:37.814Z,74.72
2024-03-02T01:32:39.913Z,75.22
2024-03-02T01:34:41.433Z,72.22
2024-03-02T01:36:43.024Z,76.00
2024-03-02T01:38:44.875Z,77.20
2024-03-02T01:40:46.561Z,80.32
2024-03-02T01:42:48.174Z,73.13
2024-03-02T01:44:49.767Z,79.50
2024-03-02T01:46:51.972Z,81.35
2024-03-02T01:48:53.582Z,80.85
2024-03-02T01:50:55.537Z,79.80
2024-03-02T01:52:57.878Z,82.50
2024-03-02T01:54:59.493Z,77.88
2024-03-02T01:57:01.455Z,84.60
2024-03-02T01:59:03.385Z,73.82
2024-03-02T02:01:05.044Z,78.07
2024-03-02T02:03:07.948Z,103.35
2024-03-02T02:05:10.262Z,79.80
2024-03-02T02:07:11.923Z,78.50
2024-03-02T02:09:13.642Z,75.88
2024-03-02T02:11:16.891Z,82.50
2024-03-02T02:13:18.477Z,88.03
2024-03-02T02:15:24.042Z,79.90
2024-03-02T02:17:25.687Z,96.38
2024-03-02T02:19:27.316Z,94.78
2024-03-02T02:21:28.996Z,109.15
2024-03-02T02:23:30.605Z,102.78
2024-03-02T02:25:32.350Z,105.55
2024-03-02T02:27:33.868Z,96.15
2024-03-02T02:29:36.007Z,95.00
2024-03-02T02:31:39.144Z,85.57
2024-03-02T02:33:44.229Z,83.40
2024-03-02T02:35:45.733Z,80.90
2024-03-02T02:37:48.421Z,87.10
2024-03-02T02:39:50.018Z,82.30
2024-03-02T02:41:51.697Z,89.03
2024-03-02T02:43:53.197Z,89.38
2024-03-02T02:45:54.757Z,118.43
2024-03-02T02:47:56.472Z,99.07
2024-03-02T02:49:58.098Z,81.85
2024-03-02T02:51:59.640Z,83.35
2024-03-02T02:54:01.287Z,86.00
2024-03-02T02:56:02.973Z,94.32
2024-03-02T02:58:04.838Z,91.75
2024-03-02T03:00:11.784Z,85.25
2024-03-02T03:02:13.485Z,102.47
2024-03-02T03:04:15.073Z,115.50
2024-03-02T03:06:16.743Z,143.55
2024-03-02T03:08:18.304Z,123.03
2024-03-02T03:10:22.064Z,113.18
2024-03-02T03:12:23.686Z,84.25
2024-03-02T03:14:25.262Z,86.63
2024-03-02T03:16:26.899Z,81.38
2024-03-02T03:18:28.547Z,87.05
2024-03-02T03:20:30.184Z,86.20
2024-03-02T03:22:36.366Z,89.78
2024-03-02T03:24:38.077Z,85.30
2024-03-02T03:26:39.696Z,86.50
2024-03-02T03:28:41.226Z,81.53
2024-03-02T03:30:42.851Z,88.00
2024-03-02T03:32:44.460Z,78.00
2024-03-02T03:34:46.117Z,85.80
2024-03-02T03:36:47.748Z,79.72
2024-03-02T03:38:49.342Z,78.30
2024-03-02T03:40:50.985Z,78.38
2024-03-02T03:42:52.946Z,77.60
2024-03-02T03:44:54.675Z,74.35
2024-03-02T03:46:56.270Z,81.45
2024-03-02T03:48:57.953Z,76.10
2024-03-02T03:50:59.488Z,74.50
2024-03-02T03:53:01.110Z,69.75
2024-03-02T03:55:02.990Z,76.35
2024-03-02T03:57:04.736Z,66.45
2024-03-02T03:59:06.319Z,67.75
2024-03-02T04:01:07.876Z,72.30
2024-03-02T04:03:09.477Z,64.40
2024-03-02T04:05:12.599Z,64.95
2024-03-02T04:07:14.582Z,64.60
2024-03-02T04:09:16.239Z,61.05
2024-03-02T04:11:17.870Z,59.95
2024-03-02T04:13:19.415Z,73.95
2024-03-02T04:15:21.091Z,65.15
2024-03-02T04:17:22.673Z,64.57
2024-03-02T04:19:24.175Z,70.75
2024-03-02T04:21:25.802Z,75.68
2024-03-02T04:23:27.756Z,67.60
2024-03-02T04:25:29.286Z,76.60
2024-03-02T04:27:30.834Z,64.28
2024-03-02T04:29:32.389Z,66.40
2024-03-02T04:31:33.959Z,65.55
2024-03-02T04:33:35.574Z,65.40
2024-03-02T04:35:38.228Z,63.28
2024-03-02T04:37:40.017Z,69.15
2024-03-02T04:39:41.561Z,69.28
2024-03-02T04:41:43.082Z,71.40
2024-03-02T04:43:44.592Z,76.57
2024-03-02T04:45:46.307Z,69.68
2024-03-02T04:47:50.253Z,61.58
2024-03-02T04:49:51.932Z,72.22
2024-03-02T04:51:53.566Z,72.93
2024-03-02T04:53:55.148Z,70.38
2024-03-02T04:56:19.276Z,70.78
2024-03-02T04:58:20.906Z,71.80
2024-03-02T05:00:22.565Z,73.88
2024-03-02T05:02:24.121Z,76.57
2024-03-02T05:04:25.623Z,78.95
2024-03-02T05:06:27.229Z,76.68
2024-03-02T05:08:28.869Z,79.50
2024-03-02T05:10:30.554Z,65.75
2024-03-02T05:12:44.514Z,74.15
2024-03-02T05:14:47.361Z,77.22
2024-03-02T05:16:48.928Z,76.10
2024-03-02T05:18:50.575Z,78.10
2024-03-02T05:20:52.549Z,84.32
2024-03-02T05:22:54.099Z,84.50
2024-03-02T05:24:55.736Z,89.95
2024-03-02T05:26:57.453Z,87.90
2024-03-02T05:28:59.116Z,83.95
2024-03-02T05:31:00.790Z,86.60
2024-03-02T05:33:02.482Z,89.90
2024-03-02T05:35:06.288Z,89.18
2024-03-02T05:37:08.413Z,91.15
2024-03-02T05:39:11.407Z,94.25
2024-03-02T05:41:13.131Z,82.97
2024-03-02T05:43:14.736Z,93.00
2024-03-02T05:45:17.849Z,88.45
2024-03-02T05:47:19.418Z,93.80
2024-03-02T05:49:20.937Z,91.07
2024-03-02T05:51:22.573Z,97.10
2024-03-02T05:53:24.183Z,99.32
2024-03-02T05:55:26.176Z,95.18
2024-03-02T05:57:40.282Z,91.18
2024-03-02T05:59:41.924Z,93.38
2024-03-02T06:01:45.150Z,94.82
2024-03-02T06:03:46.801Z,91.15
2024-03-02T06:05:50.427Z,100.28
2024-03-02T06:07:52.270Z,112.95
2024-03-02T06:09:53.887Z,117.22
2024-03-02T06:11:55.486Z,134.05
2024-03-02T06:13:57.424Z,124.65
2024-03-02T06:15:59.204Z,121.90
2024-03-02T06:18:01.606Z,126.75
2024-03-02T06:20:03.810Z,114.30
2024-03-02T06:22:05.494Z,112.20
2024-03-02T06:24:07.145Z,113.38
2024-03-02T06:26:08.772Z,109.68
2024-03-02T06:28:10.301Z,105.13
2024-03-02T06:30:12.506Z,104.05
2024-03-02T06:32:14.125Z,97.75
2024-03-02T06:34:15.720Z,96.03
2024-03-02T06:36:18.288Z,94.28
2024-03-02T06:38:20.464Z,110.68
2024-03-02T06:40:23.008Z,91.93
2024-03-02T06:42:25.321Z,94.35
2024-03-02T06:44:26.882Z,93.90
2024-03-02T06:46:28.684Z,84.55
2024-03-02T06:48:31.290Z,80.18
2024-03-02T06:50:33.104Z,88.00
2024-03-02T06:52:34.651Z,84.53
2024-03-02T06:54:37.663Z,81.03
2024-03-02T06:56:40.239Z,94.22
2024-03-02T06:58:41.897Z,86.68
2024-03-02T07:00:44.025Z,92.60
2024-03-02T07:02:45.664Z,95.80
2024-03-02T07:04:47.876Z,84.43
2024-03-02T07:06:49.444Z,76.22
2024-03-02T07:08:51.108Z,72.25
2024-03-02T07:10:52.847Z,65.30
2024-03-02T07:12:54.698Z,67.10
2024-03-02T07:15:05.377Z,64.80
2024-03-02T07:17:07.100Z,66.15
2024-03-02T07:19:08.729Z,69.10
2024-03-02T07:21:10.359Z,70.00
2024-03-02T07:23:11.893Z,65.32
2024-03-02T07:27:19.568Z,58.42
2024-03-02T07:29:21.144Z,52.63
2024-03-02T07:31:22.741Z,58.65
2024-03-02T07:33:24.291Z,68.60
2024-03-02T07:35:28.836Z,82.93
2024-03-02T07:37:30.556Z,77.90
2024-03-02T07:39:32.185Z,60.83
2024-03-02T07:41:33.952Z,58.13
2024-03-02T07:43:35.762Z,53.33
2024-03-02T07:45:37.700Z,53.42
2024-03-02T07:47:39.343Z,58.90
2024-03-02T07:49:41.117Z,51.22
2024-03-02T07:51:43.152Z,60.78
2024-03-02T07:53:46.181Z,53.10
2024-03-02T07:55:48.785Z,59.22
2024-03-02T07:57:50.692Z,55.65
2024-03-02T07:59:52.645Z,52.95
2024-03-02T08:01:56.412Z,52.42
2024-03-02T08:04:04.255Z,53.53
2024-03-02T08:06:05.894Z,59.88
2024-03-02T08:08:07.611Z,50.08
2024-03-02T08:10:09.661Z,49.30
2024-03-02T08:12:11.340Z,50.72
2024-03-02T08:14:12.944Z,47.83
2024-03-02T08:16:16.132Z,53.72
2024-03-02T08:18:17.694Z,47.88
2024-03-02T08:20:19.869Z,43.80
2024-03-02T08:22:21.574Z,49.47
2024-03-02T08:24:23.245Z,45.67
2024-03-02T08:26:24.981Z,48.67
2024-03-02T08:28:26.563Z,45.75
2024-03-02T08:30:28.186Z,45.97
2024-03-02T08:32:29.814Z,45.13
2024-03-02T08:34:31.387Z,47.45
2024-03-02T08:36:33.065Z,47.60
2024-03-02T08:38:34.693Z,49.28
2024-03-02T08:40:36.255Z,52.75
2024-03-02T08:42:37.892Z,39.95
2024-03-02T08:44:39.552Z,42.30
2024-03-02T08:46:41.533Z,41.08
2024-03-02T08:48:43.071Z,45.08
2024-03-02T08:50:45.015Z,50.95
2024-03-02T08:52:46.569Z,46.15
2024-03-02T08:54:48.082Z,45.10
2024-03-02T08:56:51.195Z,43.20
2024-03-02T08:58:53.394Z,45.85
2024-03-02T09:00:55.459Z,50.03
2024-03-02T09:02:57.067Z,57.92
2024-03-02T09:04:59.002Z,56.67
2024-03-02T09:07:00.784Z,43.92
2024-03-02T09:09:02.374Z,44.28
2024-03-02T09:11:04.933Z,45.70
2024-03-02T09:13:06.700Z,43.22
2024-03-02T09:15:08.827Z,44.40
2024-03-02T09:17:11.978Z,44.42
2024-03-02T09:19:13.597Z,39.55
2024-03-02T09:21:16.368Z,46.03
2024-03-02T09:23:17.941Z,44.67
2024-03-02T09:25:19.788Z,45.90
2024-03-02T09:27:21.632Z,60.63
2024-03-02T09:29:23.398Z,53.17
2024-03-02T09:31:25.036Z,49.38
2024-03-02T09:33:27.658Z,40.72
2024-03-02T09:35:29.519Z,47.33
2024-03-02T09:37:31.221Z,51.63
2024-03-02T09:39:32.888Z,48.92
2024-03-02T09:41:34.736Z,46.05
2024-03-02T09:43:36.313Z,54.90
2024-03-02T09:45:37.939Z,50.13
2024-03-02T09:47:39.546Z,59.78
2024-03-02T09:49:41.351Z,46.22
2024-03-02T09:51:49.848Z,45.17
2024-03-02T09:53:51.725Z,48.70
2024-03-02T09:55:53.230Z,67.57
2024-03-02T09:57:54.921Z,38.60
2024-03-02T09:59:56.600Z,47.70
2024-03-02T10:02:02.468Z,62.72
2024-03-02T10:04:06.430Z,64.72
2024-03-02T10:06:21.710Z,50.35
2024-03-02T10:08:23.324Z,49.30
2024-03-02T10:10:25.030Z,37.17
2024-03-02T10:12:26.791Z,42.83
2024-03-02T10:14:28.445Z,53.28
2024-03-02T10:16:30.104Z,47.08
2024-03-02T10:18:32.622Z,45.67
2024-03-02T10:20:34.726Z,40.97
2024-03-02T10:22:36.573Z,41.05
2024-03-02T10:24:41.013Z,43.17
2024-03-02T10:26:43.258Z,39.65
2024-03-02T10:28:53.426Z,36.92
2024-03-02T10:30:55.158Z,46.63
2024-03-02T10:32:56.903Z,39.65
2024-03-02T10:34:59.401Z,42.58
2024-03-02T10:37:03.021Z,42.28
2024-03-02T10:39:06.527Z,44.33
2024-03-02T10:41:08.851Z,49.97
2024-03-02T10:43:12.617Z,43.92
2024-03-02T10:45:16.794Z,43.45
2024-03-02T10:47:21.010Z,39.88
2024-03-02T10:49:25.129Z,39.75
2024-03-02T10:51:27.377Z,42.15
2024-03-02T10:53:29.074Z,38.80
2024-03-02T10:55:30.953Z,42.08
2024-03-02T10:57:51.715Z,43.72
2024-03-02T10:59:57.764Z,42.55
2024-03-02T11:02:05.212Z,43.22
2024-03-02T11:04:10.490Z,46.03
2024-03-02T11:06:14.385Z,53.70
2024-03-02T11:08:24.286Z,48.63
2024-03-02T11:12:39.331Z,63.05
2024-03-02T11:14:46.909Z,58.88
2024-03-02T11:16:48.921Z,48.58
2024-03-02T11:18:51.072Z,44.08
2024-03-02T11:20:53.192Z,54.30
2024-03-02T11:22:55.231Z,56.67
2024-03-02T11:24:56.934Z,40.00
2024-03-02T11:26:59.122Z,44.47
2024-03-02T11:29:01.616Z,44.58
2024-03-02T11:31:03.335Z,49.15
2024-03-02T11:33:13.326Z,48.10
2024-03-02T11:35:15.548Z,52.00
2024-03-02T11:37:19.081Z,48.70
2024-03-02T11:39:20.730Z,45.00
2024-03-02T11:41:22.294Z,46.28
2024-03-02T11:43:24.692Z,44.35
2024-03-02T11:45:28.087Z,43.58
2024-03-02T11:47:34.722Z,44.95
2024-03-02T11:49:44.139Z,42.58
2024-03-02T11:52:01.193Z,40.83
2024-03-02T11:54:04.479Z,43.25
2024-03-02T11:56:10.434Z,50.80
2024-03-02T11:58:12.187Z,41.28
2024-03-02T12:00:20.632Z,45.17
2024-03-02T12:02:23.142Z,40.60
2024-03-02T12:04:24.853Z,46.05
2024-03-02T12:06:27.558Z,42.65
2024-03-02T12:08:29.304Z,41.20
2024-03-02T12:10:32.172Z,43.45
2024-03-02T12:12:33.745Z,44.03
2024-03-02T12:14:37.705Z,44.85
2024-03-02T12:16:40.783Z,45.38
2024-03-02T12:18:44.935Z,42.92
2024-03-02T12:20:46.569Z,49.55
2024-03-02T12:22:48.210Z,45.45
2024-03-02T12:24:50.324Z,44.35
2024-03-02T12:26:52.803Z,52.75
2024-03-02T12:28:55.118Z,47.40
2024-03-02T12:30:56.806Z,42.33
2024-03-02T12:32:58.356Z,41.88
2024-03-02T12:35:00.012Z,43.60
2024-03-02T12:37:01.633Z,42.90
2024-03-02T12:39:03.728Z,43.35
2024-03-02T12:41:06.837Z,32.55
2024-03-02T12:43:08.639Z,43.13
2024-03-02T12:45:10.647Z,43.55
2024-03-02T12:47:14.671Z,40.83
2024-03-02T12:49:17.252Z,45.15
2024-03-02T12:51:18.867Z,42.00
2024-03-02T12:53:22.998Z,38.63
2024-03-02T12:55:26.030Z,50.38
2024-03-02T12:57:30.877Z,50.92
2024-03-02T12:59:32.670Z,49.25
2024-03-02T13:01:34.417Z,46.10
2024-03-02T13:03:37.779Z,41.22
2024-03-02T13:05:40.496Z,42.65
2024-03-02T13:07:42.156Z,43.70
2024-03-02T13:09:44.313Z,49.35
2024-03-02T13:11:46.482Z,41.25
2024-03-02T13:13:48.191Z,45.28
2024-03-02T13:15:50.148Z,43.10
2024-03-02T13:17:52.163Z,52.80
2024-03-02T13:19:57.931Z,42.42
2024-03-02T13:21:59.832Z,47.40
2024-03-02T13:24:02.262Z,43.70
2024-03-02T13:26:04.073Z,46.67
2024-03-02T13:28:06.288Z,42.83
2024-03-02T13:30:10.371Z,45.38
2024-03-02T13:32:12.253Z,44.60
2024-03-02T13:34:13.872Z,32.45
2024-03-02T13:36:15.384Z,46.83
2024-03-02T13:38:20.964Z,37.78
2024-03-02T13:40:22.692Z,40.28
2024-03-02T13:42:24.995Z,38.83
2024-03-02T13:44:26.632Z,41.20
2024-03-02T13:46:28.845Z,39.67
2024-03-02T13:48:31.715Z,44.90
2024-03-02T13:50:33.514Z,41.80
2024-03-02T13:52:35.033Z,41.80
2024-03-02T13:54:41.356Z,42.03
2024-03-02T13:56:43.055Z,41.20
2024-03-02T13:58:45.129Z,47.58
2024-03-02T14:00:46.974Z,52.95
2024-03-02T14:02:51.117Z,59.88
2024-03-02T14:04:52.828Z,42.90
2024-03-02T14:06:54.515Z,45.35
2024-03-02T14:08:56.091Z,44.83
2024-03-02T14:11:01.559Z,43.70
2024-03-02T14:13:03.354Z,46.72
2024-03-02T14:15:05.745Z,40.65
2024-03-02T14:17:07.924Z,35.00
2024-03-02T14:19:10.744Z,45.45
2024-03-02T14:21:12.656Z,45.45
2024-03-02T14:23:14.251Z,39.17
2024-03-02T14:25:15.974Z,40.15
2024-03-02T14:27:28.120Z,72.05
2024-03-02T14:29:40.710Z,54.40
2024-03-02T14:31:42.404Z,82.22
2024-03-02T14:33:44.082Z,61.38
2024-03-02T14:35:46.391Z,48.28
2024-03-02T14:37:47.993Z,46.65
2024-03-02T14:39:49.680Z,50.28
2024-03-02T14:41:51.205Z,56.75
2024-03-02T14:43:53.431Z,62.90
2024-03-02T14:45:55.301Z,50.47
2024-03-02T14:48:00.745Z,50.80
2024-03-02T14:50:07.360Z,53.42
2024-03-02T14:52:10.375Z,54.05
2024-03-02T14:54:11.990Z,47.88
2024-03-02T14:56:15.016Z,44.63
2024-03-02T14:58:17.171Z,43.20
2024-03-02T15:00:19.188Z,46.67
2024-03-02T15:02:20.727Z,46.05
2024-03-02T15:04:22.866Z,57.90
2024-03-02T15:06:24.674Z,57.90
2024-03-02T15:08:26.261Z,56.15
2024-03-02T15:10:28.718Z,56.50
2024-03-02T15:12:30.339Z,67.57
2024-03-02T15:14:32.041Z,106.13
2024-03-02T15:16:33.615Z,73.00
2024-03-02T15:18:36.150Z,70.10
2024-03-02T15:20:37.830Z,68.60
2024-03-02T15:22:39.399Z,67.45
2024-03-02T15:24:41.124Z,67.55
2024-03-02T15:26:42.704Z,71.05
2024-03-02T15:28:44.708Z,93.75
2024-03-02T15:30:46.325Z,62.83
2024-03-02T15:32:47.854Z,71.03
2024-03-02T15:34:49.726Z,168.68
2024-03-02T15:36:51.736Z,76.65
2024-03-02T15:38:53.461Z,72.60
2024-03-02T15:40:55.096Z,75.82
2024-03-02T15:42:56.703Z,70.47
2024-03-02T15:44:58.351Z,181.25
2024-03-02T15:47:00.251Z,129.02
2024-03-02T15:49:02.016Z,93.55
2024-03-02T15:51:06.709Z,129.70
2024-03-02T15:53:09.664Z,71.93
2024-03-02T15:55:11.524Z,184.65
2024-03-02T15:57:13.791Z,81.40
2024-03-02T15:59:15.669Z,83.57
2024-03-02T16:01:17.913Z,92.80
2024-03-02T16:03:19.579Z,113.10
2024-03-02T16:05:21.869Z,121.15
2024-03-02T16:07:23.470Z,131.85
2024-03-02T16:09:25.098Z,153.70
2024-03-02T16:11:27.475Z,194.07
2024-03-02T16:13:29.378Z,151.50
2024-03-02T16:15:30.961Z,407.02
2024-03-02T16:17:32.567Z,153.10
2024-03-02T16:19:34.339Z,123.13
2024-03-02T16:21:35.929Z,116.65
2024-03-02T16:23:37.543Z,100.72
2024-03-02T16:25:42.158Z,218.68
2024-03-02T16:27:44.827Z,185.60
2024-03-02T16:29:47.892Z,192.27
2024-03-02T16:31:49.440Z,125.90
2024-03-02T16:33:51.093Z,210.25
2024-03-02T16:35:52.682Z,144.82
2024-03-02T16:37:54.251Z,108.90
2024-03-02T16:39:57.982Z,103.00
2024-03-02T16:41:59.768Z,121.85
2024-03-02T16:44:02.147Z,164.40
2024-03-02T16:46:06.951Z,212.35
2024-03-02T16:48:08.992Z,164.93
2024-03-02T16:50:13.026Z,148.45
2024-03-02T16:52:16.026Z,174.57
2024-03-02T16:54:17.612Z,500.88
2024-03-02T16:56:19.296Z,296.42
2024-03-02T16:58:20.864Z,152.07
2024-03-02T17:00:22.535Z,128.02
2024-03-02T17:02:26.552Z,200.68
2024-03-02T17:04:28.480Z,186.50
2024-03-02T17:06:31.218Z,163.95
2024-03-02T17:08:32.837Z,192.57
2024-03-02T17:10:34.441Z,179.27
2024-03-02T17:12:36.105Z,409.25
2024-03-02T17:14:37.653Z,270.58
2024-03-02T17:16:39.137Z,311.55
2024-03-02T17:18:41.032Z,146.93
2024-03-02T17:20:42.805Z,170.90
2024-03-02T17:22:44.353Z,158.25
2024-03-02T17:24:45.949Z,179.90
2024-03-02T17:26:47.491Z,147.23
2024-03-02T17:28:49.011Z,154.60
2024-03-02T17:30:50.655Z,177.15
2024-03-02T17:32:52.241Z,234.25
2024-03-02T17:34:53.818Z,163.15
2024-03-02T17:36:55.552Z,152.80
2024-03-02T17:38:57.489Z,144.55
2024-03-02T17:40:59.302Z,157.23
2024-03-02T17:43:00.978Z,153.57
2024-03-02T17:45:02.574Z,156.98
2024-03-02T17:47:04.495Z,189.50
2024-03-02T17:49:06.161Z,130.20
2024-03-02T17:51:09.260Z,127.43
2024-03-02T17:53:10.862Z,133.30
2024-03-02T17:55:12.450Z,153.55
2024-03-02T17:57:13.992Z,162.77
2024-03-02T17:59:15.555Z,148.85
2024-03-02T18:01:17.418Z,140.68
2024-03-02T18:03:19.055Z,141.35
2024-03-02T18:05:20.626Z,134.00
2024-03-02T18:07:22.258Z,130.98
2024-03-02T18:09:23.828Z,132.63
2024-03-02T18:11:25.714Z,138.40
2024-03-02T18:13:27.429Z,155.63
2024-03-02T18:15:29.169Z,150.40
2024-03-02T18:17:30.775Z,153.35
2024-03-02T18:19:32.876Z,161.68
2024-03-02T18:21:34.565Z,134.40
2024-03-02T18:23:36.128Z,115.13
2024-03-02T18:25:38.171Z,126.72
2024-03-02T18:27:39.966Z,131.90
2024-03-02T18:29:41.596Z,117.10
2024-03-02T18:31:43.349Z,115.50
2024-03-02T18:33:44.980Z,128.20
2024-03-02T18:35:46.566Z,128.40
2024-03-02T18:37:48.189Z,142.73
2024-03-02T18:39:50.415Z,198.63
2024-03-02T18:41:52.026Z,156.80
2024-03-02T18:43:53.578Z,110.43
2024-03-02T18:45:56.794Z,96.68
2024-03-02T18:48:01.204Z,92.10
2024-03-02T18:50:09.383Z,101.88
2024-03-02T18:52:11.044Z,112.78
2024-03-02T18:54:17.381Z,108.53
2024-03-02T18:56:18.993Z,107.28
2024-03-02T18:58:20.609Z,98.70
2024-03-02T19:00:22.186Z,94.53
2024-03-02T19:02:23.915Z,90.75
2024-03-02T19:04:25.416Z,87.95
2024-03-02T19:06:27.003Z,91.65
2024-03-02T19:08:29.297Z,127.50
2024-03-02T19:10:30.909Z,186.07
2024-03-02T19:12:33.298Z,280.23
2024-03-02T19:14:35.024Z,137.23
2024-03-02T19:16:37.194Z,175.75
2024-03-02T19:18:39.795Z,183.30
2024-03-02T19:20:44.124Z,210.65
2024-03-02T19:22:46.114Z,196.80
2024-03-02T19:24:47.960Z,182.32
2024-03-02T19:26:49.518Z,304.92
2024-03-02T19:28:51.147Z,227.77
2024-03-02T19:30:52.762Z,315.50
2024-03-02T19:32:54.492Z,147.25
2024-03-02T19:34:56.018Z,182.52
2024-03-02T19:37:00.998Z,189.23
2024-03-02T19:39:02.645Z,269.77
2024-03-02T19:41:05.983Z,159.23
2024-03-02T19:43:07.840Z,148.70
2024-03-02T19:45:09.838Z,118.15
2024-03-02T19:47:20.114Z,118.82
2024-03-02T19:49:21.771Z,137.38
2024-03-02T19:51:23.419Z,129.77
2024-03-02T19:53:26.484Z,128.30
2024-03-02T19:55:31.581Z,141.32
2024-03-02T19:57:36.835Z,161.90
2024-03-02T19:59:40.046Z,164.27
2024-03-02T20:01:41.970Z,171.65
2024-03-02T20:03:43.728Z,168.20
2024-03-02T20:05:45.363Z,166.57
2024-03-02T20:07:47.044Z,204.80
2024-03-02T20:09:49.298Z,183.07
2024-03-02T20:11:50.994Z,237.63
2024-03-02T20:13:52.588Z,161.15
2024-03-02T20:15:55.500Z,124.25
2024-03-02T20:17:57.128Z,136.75
2024-03-02T20:19:59.039Z,114.65
2024-03-02T20:22:00.677Z,136.15
2024-03-02T20:24:02.719Z,140.63
2024-03-02T20:26:06.154Z,156.82
2024-03-02T20:28:07.774Z,173.57
2024-03-02T20:30:10.677Z,391.60
2024-03-02T20:32:12.553Z,154.75
2024-03-02T20:34:17.373Z,165.48
2024-03-02T20:36:19.073Z,128.90
2024-03-02T20:38:20.789Z,118.55
2024-03-02T20:40:22.752Z,153.70
2024-03-02T20:42:25.232Z,114.65
2024-03-02T20:44:27.147Z,132.80
2024-03-02T20:46:29.265Z,163.40
2024-03-02T20:48:30.957Z,149.43
2024-03-02T20:50:32.539Z,146.70
2024-03-02T20:52:34.397Z,162.60
2024-03-02T20:54:36.940Z,220.65
2024-03-02T20:56:42.600Z,204.60
2024-03-02T20:58:46.050Z,180.13
2024-03-02T21:00:47.755Z,139.73
2024-03-02T21:02:49.637Z,180.55
2024-03-02T21:04:51.663Z,130.45
2024-03-02T21:06:53.396Z,118.93
2024-03-02T21:08:55.094Z,109.38
2024-03-02T21:10:56.697Z,104.32
2024-03-02T21:13:01.011Z,130.55
2024-03-02T21:15:02.647Z,168.85
2024-03-02T21:17:04.608Z,134.48
2024-03-02T21:19:06.237Z,106.78
2024-03-02T21:21:07.999Z,142.43
2024-03-02T21:23:12.479Z,148.25
2024-03-02T21:25:16.138Z,140.23
2024-03-02T21:27:19.988Z,155.80
2024-03-02T21:29:23.275Z,122.40
2024-03-02T21:31:24.890Z,171.95
2024-03-02T21:33:29.608Z,106.57
2024-03-02T21:35:32.966Z,107.30
2024-03-02T21:37:34.461Z,110.25
2024-03-02T21:39:42.852Z,114.90
2024-03-02T21:41:48.494Z,107.85
2024-03-02T21:43:50.042Z,110.18
2024-03-02T21:45:52.831Z,97.25
2024-03-02T21:47:54.502Z,121.28
2024-03-02T21:49:56.135Z,107.80
2024-03-02T21:51:57.757Z,213.90
2024-03-02T21:53:59.497Z,113.65
2024-03-02T21:56:01.122Z,171.70
2024-03-02T21:58:02.716Z,127.10
2024-03-02T22:00:05.163Z,113.30
2024-03-02T22:02:06.732Z,103.05
2024-03-02T22:04:08.721Z,92.97
2024-03-02T22:06:10.264Z,97.70
2024-03-02T22:08:11.808Z,108.28
2024-03-02T22:10:13.506Z,112.97
2024-03-02T22:12:15.098Z,98.00
2024-03-02T22:14:22.591Z,93.63
2024-03-02T22:16:27.883Z,102.13
2024-03-02T22:18:29.475Z,91.70
2024-03-02T22:20:31.058Z,94.80
2024-03-02T22:22:32.687Z,108.80
2024-03-02T22:24:34.325Z,115.07
2024-03-02T22:26:35.843Z,97.93
2024-03-02T22:28:37.448Z,107.55
2024-03-02T22:30:38.993Z,109.00
2024-03-02T22:32:40.639Z,105.53
2024-03-02T22:34:42.244Z,94.47
2024-03-02T22:36:44.074Z,110.13
2024-03-02T22:38:45.614Z,109.22
2024-03-02T22:40:47.317Z,114.15
2024-03-02T22:42:48.946Z,95.40
2024-03-02T22:44:50.482Z,91.22
2024-03-02T22:46:52.642Z,99.55
2024-03-02T22:48:55.339Z,94.78
2024-03-02T22:50:57.049Z,97.85
2024-03-02T22:52:58.634Z,98.40
2024-03-02T22:55:00.285Z,98.90
2024-03-02T22:57:02.282Z,110.43
2024-03-02T22:59:03.956Z,100.53
2024-03-02T23:01:09.893Z,103.43
2024-03-02T23:03:11.512Z,96.25
2024-03-02T23:05:13.041Z,106.43
2024-03-02T23:07:20.218Z,105.32
2024-03-02T23:09:22.097Z,142.60
2024-03-02T23:11:23.669Z,259.27
2024-03-02T23:13:28.010Z,119.72
2024-03-02T23:15:32.431Z,109.93
2024-03-02T23:17:34.857Z,102.25
2024-03-02T23:19:36.598Z,110.68
2024-03-02T23:21:38.365Z,145.10
2024-03-02T23:23:39.936Z,131.85
2024-03-02T23:25:41.609Z,180.18
2024-03-02T23:27:43.247Z,177.43
2024-03-02T23:29:45.245Z,168.05
2024-03-02T23:31:47.059Z,182.00
2024-03-02T23:33:49.631Z,172.10
2024-03-02T23:35:51.180Z,166.98
2024-03-02T23:37:54.361Z,217.05
2024-03-02T23:40:02.334Z,151.55
2024-03-02T23:42:04.776Z,138.70
2024-03-02T23:44:08.809Z,113.18
2024-03-02T23:46:12.337Z,133.40
2024-03-02T23:48:14.107Z,151.88
2024-03-02T23:50:15.631Z,102.65
2024-03-02T23:52:17.405Z,126.68
2024-03-02T23:54:19.083Z,123.68
2024-03-02T23:56:20.637Z,212.82
2024-03-02T23:58:22.175Z,131.07
